Terminal Aerodrome Forecast
Issued by NWS

Home | Current Version | Previous Version | Text Only | Print | Product List | Glossary On
Versions: 1 2 3 4 5 6 7 8 9 10 11 12 13 14 15 16 17 18 19
000
FTUS46 KLOX 301742
TAFBUR
TAF
KBUR 301742Z 3018/3118 VRB03KT P6SM BKN150
     FM301900 17008KT P6SM SCT080 BKN100
     FM310300 12006KT P6SM SCT080 BKN100
     FM310600 VRB03KT P6SM SCT080 SCT120=

USA.gov is the U.S. government's official web portal to all federal, state and local government web resources and services.